Flight Track Log - Related Links

Times and Time Zones

All times are in EDT time to prevent confusion due to time zone crossing. See the JBU808 flight status page for this flight to view local times or setup timezone preferences in your user account.

Time Position Orientation Groundspeed Altitude Reporting Facility
EDT Latitude Longitude Course Direction KTS MPH feet Rate Location/Type
Sat 03:09:15 PM 18.4500 -65.9667 North 180 207 1,500  Level San Juan Center
Sat 03:10:15 PM 18.5167 -65.9500 13° North 250 288 2,800 2,231 Climbing San Juan Center
Sat 03:11:16 PM 18.6000 -65.9500 360° North 280 322 6,000 2,975 Climbing San Juan Center
Sat 03:12:00 PM 18.8890 -65.9667 North  Level FlightAware Approximate
Sat 03:12:16 PM 18.6833 -65.9500 360° North 290 334 8,800  Level San Juan Center
Sat 03:13:00 PM 19.0036 -65.9667 North  Level FlightAware Approximate
Sat 03:13:16 PM 18.7667 -65.9667 349° North 310 357 10,800  Level San Juan Center
Sat 03:14:00 PM 19.1182 -65.9667 North  Level FlightAware Approximate
Sat 03:14:17 PM 18.8667 -65.9667 360° North 360 414 12,100  Level San Juan Center
Sat 03:15:17 PM 18.9667 -65.9667 360° North 380 437 14,100 2,083 Climbing San Juan Center
Sat 03:16:18 PM 19.0833 -65.9667 360° North 380 437 16,300 1,785 Climbing San Juan Center
Sat 03:17:18 PM 19.1833 -65.9667 360° North 390 449 17,700 1,550 Climbing San Juan Center
Sat 03:18:18 PM 19.3000 -65.9667 360° North 400 460 19,400 1,438 Climbing San Juan Center
Sat 03:19:19 PM 19.4167 -65.9667 360° North 420 483 20,600 1,289 Climbing San Juan Center
Sat 03:20:19 PM 19.5333 -65.9833 352° North 440 506 22,000 1,438 Climbing San Juan Center
Sat 03:21:20 PM 19.6500 -65.9833 360° North 430 495 23,500 1,240 Climbing San Juan Center
Sat 03:22:20 PM 19.7667 -65.9833 360° North 430 495 24,500 1,050 Climbing San Juan Center
Sat 03:23:20 PM 19.9000 -65.9833 360° North 440 506 25,600 1,091 Climbing San Juan Center
Sat 03:24:21 PM 20.0167 -65.9833 360° North 450 518 26,700 1,041 Climbing San Juan Center
Sat 03:25:21 PM 20.1500 -65.9833 360° North 440 506 27,700 900 Climbing San Juan Center
Sat 03:26:21 PM 20.2667 -65.9833 360° North 460 529 28,500 744 Climbing San Juan Center
Sat 03:27:22 PM 20.4000 -65.9667 North 470 541 29,200 942 Climbing San Juan Center
Sat 03:28:22 PM 20.5333 -65.9500 North 460 529 30,400 1,150 Climbing San Juan Center
Sat 03:29:22 PM 20.6667 -65.9500 360° North 460 529 31,500 1,140 Climbing San Juan Center
Sat 03:30:23 PM 20.7833 -65.9333 North 450 518 32,700 992 Climbing San Juan Center
Sat 03:31:23 PM 20.9167 -65.9167 North 450 518 33,500 645 Climbing San Juan Center
Sat 03:32:24 PM 21.0500 -65.9167 360° North 450 518 34,000 248 Climbing San Juan Center
Sat 03:33:24 PM 21.1667 -65.9000 North 470 541 34,000  Level San Juan Center
Sat 03:34:24 PM 21.3000 -65.8833 North 450 518 34,000 -50 Level San Juan Center
Sat 03:35:24 PM 21.4167 -65.8667 North 450 518 33,900  Descending San Juan Center
Sat 03:36:25 PM 21.5500 -65.8500 North 480 552 34,000 50 Climbing San Juan Center
Sat 03:37:25 PM 21.6667 -65.8333 North 440 506 34,000 -50 Level San Juan Center
Sat 03:38:26 PM 21.7833 -65.8167 North 450 518 33,900 -50 Descending San Juan Center
Sat 03:39:26 PM 21.9167 -65.8000 North 460 529 33,900 50 Level San Juan Center
Sat 03:40:27 PM 22.0333 -65.7667 15° North 470 541 34,000 41 Climbing San Juan Center
Sat 03:41:54 PM 22.0667 -65.8000 10° North 436 502 34,000 70 Level New York Oceanic (ODAPS)
Sat 03:54:39 PM 23.5000 -65.5333 351° North 434 499 35,000 43 Climbing New York Oceanic (ODAPS)
Sat 04:05:21 PM 24.9333 -65.7833 North 448 516 35,000  Level New York Oceanic (ODAPS)
Sat 04:40:15 PM 29.3525 -65.4033 349° North 448 516 35,000  Level New York Center
Sat 04:41:00 PM 29.5327 -65.4418 349° North 448 516 35,000 -102 Level FlightAware Transoceanic
Sat 04:41:14 PM 29.4617 -65.4256 350° North 423 487 34,900  Descending New York Center
Sat 04:42:00 PM 29.6488 -65.4670 349° North 448 516 35,000 100 Climbing FlightAware Transoceanic
Sat 04:42:14 PM 29.5872 -65.4492 351° North 423 487 35,000  Level New York Center
Sat 04:43:00 PM 29.7649 -65.4922 349° North 448 516 35,000  Level FlightAware Transoceanic
Sat 04:43:14 PM 29.7028 -65.4781 348° North 425 489 35,000  Level New York Center
Sat 04:44:00 PM 29.8810 -65.5175 349° North 448 516 35,000  Level FlightAware Transoceanic
Sat 04:44:14 PM 29.8078 -65.5006 349° North 425 489 35,000  Level New York Center
Sat 04:45:14 PM 29.9381 -65.5289 349° North 427 491 35,000  Level New York Center
Sat 04:46:14 PM 30.0556 -65.5556 349° North 427 491 35,000  Level New York Center
Sat 04:47:14 PM 30.1606 -65.5781 350° North 430 495 35,000  Level New York Center
Sat 04:48:14 PM 30.2908 -65.6067 349° North 435 501 35,000  Level New York Center
Sat 04:49:14 PM 30.4000 -65.6314 349° North 429 494 35,000  Level New York Center
Sat 04:50:14 PM 30.5303 -65.6578 350° North 430 495 35,000  Level New York Center
Sat 04:51:14 PM 30.6522 -65.6892 348° North 432 497 35,000  Level New York Center
Sat 04:52:14 PM 30.7594 -65.7144 349° North 432 497 35,000  Level New York Center
Sat 04:53:14 PM 30.8919 -65.7431 350° North 439 505 35,000  Level New York Center
Sat 04:54:14 PM 31.0136 -65.7700 349° North 433 498 35,000  Level New York Center
Sat 04:55:14 PM 31.1208 -65.7953 349° North 433 498 35,000  Level New York Center
Sat 04:56:14 PM 31.2511 -65.8219 350° North 433 498 35,000  Level New York Center
Sat 04:57:14 PM 31.3583 -65.8475 348° North 433 498 35,000  Level New York Center
Sat 04:58:14 PM 31.4908 -65.8789 349° North 433 498 35,000  Level New York Center
Sat 04:59:14 PM 31.6086 -65.9064 349° North 433 498 35,000  Level New York Center
Sat 05:00:14 PM 31.7200 -65.9319 349° North 433 498 35,000  Level New York Center
Sat 05:01:14 PM 31.8503 -65.9611 349° North 433 498 35,000  Level New York Center
Sat 05:02:14 PM 31.9681 -65.9864 350° North 433 498 35,000  Level New York Center
Sat 05:03:14 PM 32.0753 -66.0097 350° North 433 498 35,000  Level New York Center
Sat 05:04:14 PM 32.2056 -66.0419 348° North 433 498 35,000  Level New York Center
Sat 05:05:14 PM 32.3128 -66.0653 350° North 433 498 35,000  Level New York Center
Sat 05:06:14 PM 32.4431 -66.0953 349° North 433 498 35,000  Level New York Center
Sat 05:07:14 PM 32.5631 -66.1231 349° North 433 498 35,000  Level New York Center
Sat 05:09:14 PM 32.8028 -66.1789 349° North 438 504 35,000  Level New York Center
Sat 05:10:14 PM 32.9183 -66.2050 349° North 433 498 35,000  Level New York Center
Sat 05:11:14 PM 33.0256 -66.2289 349° North 432 497 35,000  Level New York Center
Sat 05:12:14 PM 33.1581 -66.2564 350° North 438 504 35,000  Level New York Center
Sat 05:13:14 PM 33.2719 -66.2875 347° North 427 491 35,000  Level New York Center
Sat 05:14:14 PM 33.3958 -66.3108 351° North 432 497 35,000  Level New York Center
Sat 05:15:14 PM 33.5094 -66.3394 348° North 427 491 35,000  Level New York Center
Sat 05:16:14 PM 33.6186 -66.3611 351° North 435 501 35,000  Level New York Center
Sat 05:17:14 PM 33.7469 -66.3917 349° North 435 501 35,000  Level New York Center
Sat 05:18:14 PM 33.8669 -66.4206 349° North 430 495 35,000  Level New York Center
Sat 05:19:14 PM 33.9681 -66.4475 348° North 416 479 35,000  Level New York Center
Sat 05:20:14 PM 34.0964 -66.4786 349° North 416 479 35,000  Level New York Center
Sat 05:21:15 PM 34.2139 -66.5025 350° North 429 494 35,000  Level New York Center
Sat 05:22:14 PM 34.3297 -66.5342 347° North 429 494 35,000  Level New York Center
Sat 05:23:14 PM 34.4531 -66.5431 357° North 434 499 35,000  Level New York Center
Sat 05:24:14 PM 34.5603 -66.5625 352° North 443 510 35,000  Level New York Center
Sat 05:25:15 PM 34.6847 -66.6017 345° North 428 493 35,000  Level New York Center
Sat 05:26:14 PM 34.8064 -66.6233 352° North 423 487 35,000 29 Level New York Center
Sat 05:59:14 PM 38.6786 -67.5092 346° North 447 514 36,000 29 Climbing New York Center
Sat 06:00:00 PM 38.5929 -67.7482 346° North  Level FlightAware Approximate
Sat 06:00:14 PM 38.7942 -67.5414 348° North 439 505 36,000  Level New York Center
Sat 06:01:00 PM 38.7058 -67.7834 347° North  Level FlightAware Approximate
Sat 06:01:14 PM 38.9036 -67.5819 344° North 422 486 36,000  Level New York Center
Sat 06:02:00 PM 38.8189 -67.8174 346° North  Level FlightAware Approximate
Sat 06:02:14 PM 39.0036 -67.6497 332° Northwest 403 464 35,900  Level New York Center
Sat 06:03:14 PM 39.1011 -67.7150 333° Northwest 397 457 36,000 50 Climbing New York Center
Sat 06:04:14 PM 39.1986 -67.7833 331° Northwest 397 457 36,000 -50 Level New York Center
Sat 06:05:14 PM 39.2983 -67.8517 332° Northwest 402 463 35,900  Descending New York Center
Sat 06:06:14 PM 39.3981 -67.9203 332° Northwest 407 468 36,000 50 Climbing New York Center
Sat 06:07:14 PM 39.4994 -67.9836 334° Northwest 407 468 36,000  Level New York Center
Sat 06:08:14 PM 39.6011 -68.0525 332° Northwest 407 468 36,000  Level New York Center
Sat 06:09:14 PM 39.6986 -68.1217 331° Northwest 407 468 36,000  Level New York Center
Sat 06:10:14 PM 39.7981 -68.1936 331° Northwest 407 468 36,000  Level New York Center
Sat 06:11:14 PM 39.8994 -68.2575 334° Northwest 407 468 36,000  Level New York Center
Sat 06:12:14 PM 39.9989 -68.3272 332° Northwest 407 468 36,000  Level New York Center
Sat 06:13:14 PM 40.0983 -68.4000 331° Northwest 402 463 36,000  Level New York Center
Sat 06:14:14 PM 40.1997 -68.4728 331° Northwest 402 463 36,000  Level New York Center
Sat 06:15:14 PM 40.3011 -68.5431 332° Northwest 402 463 36,000  Level New York Center
Sat 06:16:14 PM 40.4044 -68.6161 332° Northwest 412 474 36,000  Level New York Center
Sat 06:17:06 PM 40.4828 -68.6650 335° Northwest 418 481 36,000  Level Boston Center
Sat 06:18:06 PM 40.6019 -68.7517 331° Northwest 413 475 36,000 -50 Level Boston Center
Sat 06:19:07 PM 40.7022 -68.8242 331° Northwest 410 472 35,900  Descending Boston Center
Sat 06:20:10 PM 40.8053 -68.8944 333° Northwest 412 474 36,000 48 Climbing Boston Center
Sat 06:21:11 PM 40.9064 -68.9683 331° Northwest 413 475 36,000  Level Boston Center
Sat 06:22:09 PM 41.0072 -69.0428 331° Northwest 413 475 36,000  Level Boston Center
Sat 06:23:10 PM 41.1094 -69.1156 332° Northwest 414 476 36,000  Level Boston Center
Sat 06:24:14 PM 41.2117 -69.1897 331° Northwest 414 476 36,000  Level Boston Center
Sat 06:25:14 PM 41.3108 -69.2642 331° Northwest 414 476 36,000  Level Boston Center
Sat 06:26:15 PM 41.4117 -69.3364 332° Northwest 414 476 36,000 -492 Level Boston Center
Sat 06:27:16 PM 41.5242 -69.4197 331° Northwest 413 475 35,000 -934 Descending Boston Center
Sat 06:28:17 PM 41.6206 -69.4903 331° Northwest 402 463 34,100 -1,317 Descending Boston Center
Sat 06:29:19 PM 41.7175 -69.5631 331° Northwest 398 458 32,300 -1,967 Descending Boston Center
Sat 06:30:19 PM 41.8128 -69.6325 331° Northwest 398 458 30,100 -2,132 Descending Boston Center
Sat 06:31:20 PM 41.9047 -69.7022 331° Northwest 387 445 28,000 -2,132 Descending Boston Center
Sat 06:32:20 PM 42.0000 -69.7742 331° Northwest 376 433 25,800 -2,129 Descending Boston Center
Sat 06:33:24 PM 42.0878 -69.8397 331° Northwest 366 421 23,600 -2,081 Descending Boston Center
Sat 06:34:24 PM 42.1742 -69.9039 331° Northwest 360 414 21,500 -2,100 Descending Boston Center
Sat 06:35:24 PM 42.2578 -69.9675 331° Northwest 351 404 19,400 -1,983 Descending Boston Center
Sat 06:36:25 PM 42.3336 -70.0250 331° Northwest 341 392 17,500 -2,066 Descending Boston Center
Sat 06:37:26 PM 42.4228 -70.0928 331° Northwest 316 364 15,200 -2,033 Descending Boston Center
Sat 06:38:26 PM 42.4919 -70.1472 330° Northwest 296 341 13,400 -1,636 Descending Boston Center
Sat 06:39:27 PM 42.5506 -70.2039 325° Northwest 267 307 11,900 -1,161 Descending Boston Center
Sat 06:40:30 PM 42.5958 -70.2547 320° Northwest 221 254 11,000 -1,113 Descending Boston Center
Sat 06:41:31 PM 42.6069 -70.3131 285° West 162 186 9,600 -1,525 Descending Boston Center
Sat 06:42:32 PM 42.6158 -70.3708 282° West 158 182 7,900 -1,785 Descending Boston Center
Sat 06:43:32 PM 42.6183 -70.4308 273° West 158 182 6,000 -992 Descending Boston Center
Sat 06:44:33 PM 42.6053 -70.4944 254° West 163 188 5,900 -145 Descending Boston Center
Sat 06:45:36 PM 42.5567 -70.4822 170° South 220 253 5,700 -496 Descending Boston Center
Sat 06:46:34 PM 42.5028 -70.4333 146° Southeast 233 268 4,900 -836 Descending Boston Center
Sat 06:47:38 PM 42.4525 -70.4650 205° Southwest 189 217 4,000 -484 Descending Boston Center
Sat 06:48:38 PM 42.4406 -70.5256 255° West 175 201 3,900 -50 Descending Boston Center
Sat 06:49:38 PM 42.4306 -70.5875 258° West 171 197 3,900 50 Level Boston Center
Sat 06:50:39 PM 42.4200 -70.6494 257° West 171 197 4,000  Climbing Boston Center
Sat 06:51:39 PM 42.4089 -70.7086 256° West 168 193 3,900 -339 Descending Boston Center
Sat 06:52:43 PM 42.3994 -70.7672 258° West 163 188 3,300 -672 Descending Boston Center
Sat 06:53:44 PM 42.3906 -70.8178 257° West 149 171 2,500 -843 Descending Boston Center
Sat 06:54:44 PM 42.3808 -70.8739 257° West 145 167 1,600 -687 Descending Boston Center
Sat 06:55:55 PM 42.3667 -70.9333 252° West 121 139 1,000 -595 Descending KA90
Sat 06:56:55 PM 42.3667 -70.9667 270° West 120 138 300 -700 Descending KA90
Sat 06:59:00 PM 42.3500 -71.0000 North  Level FlightAware Approximate

Login

Don't have an account? Register now (free) for customized features, flight alerts, and more!